createdAt,value
2023-01-25T00:00:33.036Z,0.47
2023-01-25T00:02:59.921Z,0.41
2023-01-25T00:05:26.749Z,0.40
2023-01-25T00:07:53.759Z,0.37
2023-01-25T00:10:23.694Z,0.31
2023-01-25T00:12:50.578Z,0.32
2023-01-25T00:15:17.520Z,0.29
2023-01-25T00:17:44.657Z,0.30
2023-01-25T00:20:11.711Z,0.28
2023-01-25T00:22:38.655Z,0.29
2023-01-25T00:25:06.341Z,0.44
2023-01-25T00:27:33.423Z,0.59
2023-01-25T00:30:00.426Z,0.40
2023-01-25T00:32:54.308Z,0.31
2023-01-25T00:35:21.757Z,0.46
2023-01-25T00:37:52.580Z,0.27
2023-01-25T00:40:19.650Z,0.29
2023-01-25T00:42:46.558Z,0.31
2023-01-25T00:45:13.816Z,0.35
2023-01-25T00:47:40.740Z,0.39
2023-01-25T00:50:09.287Z,0.37
2023-01-25T00:52:39.825Z,0.49
2023-01-25T00:55:07.736Z,0.31
2023-01-25T00:57:35.074Z,0.33
2023-01-25T01:00:05.117Z,0.40
2023-01-25T01:02:32.340Z,0.14
2023-01-25T01:05:00.069Z,0.05
2023-01-25T01:07:27.960Z,0.11
2023-01-25T01:09:59.237Z,0.14
2023-01-25T01:12:28.957Z,0.09
2023-01-25T01:14:56.796Z,0.15
2023-01-25T01:17:23.767Z,0.20
2023-01-25T01:19:50.792Z,0.29
2023-01-25T01:22:18.544Z,0.17
2023-01-25T01:24:48.466Z,0.16
2023-01-25T01:27:15.473Z,0.15
2023-01-25T01:29:42.508Z,0.08
2023-01-25T01:32:09.583Z,0.04
2023-01-25T01:34:36.889Z,0.06
2023-01-25T01:37:03.927Z,0.08
2023-01-25T01:39:30.959Z,-0.02
2023-01-25T01:41:57.904Z,-0.06
2023-01-25T01:44:45.014Z,0.00
2023-01-25T01:47:19.173Z,0.05
2023-01-25T01:49:54.466Z,-0.02
2023-01-25T01:52:28.244Z,-0.04
2023-01-25T01:55:05.052Z,-0.06
2023-01-25T01:57:43.623Z,-0.03
2023-01-25T02:00:19.231Z,0.01
2023-01-25T02:02:47.276Z,0.03
2023-01-25T02:05:53.436Z,-0.11
2023-01-25T02:08:20.991Z,-0.04
2023-01-25T02:10:49.620Z,0.05
2023-01-25T02:13:18.694Z,0.02
2023-01-25T02:15:49.586Z,-0.10
2023-01-25T02:18:18.120Z,-0.08
2023-01-25T02:20:47.179Z,-0.15
2023-01-25T02:23:35.859Z,-0.13
2023-01-25T02:26:07.637Z,-0.16
2023-01-25T02:28:42.204Z,-0.23
2023-01-25T02:31:09.231Z,-0.21
2023-01-25T02:33:36.861Z,-0.17
2023-01-25T02:36:07.486Z,-0.18
2023-01-25T02:38:42.589Z,-0.25
2023-01-25T02:41:25.759Z,-0.21
2023-01-25T02:43:53.162Z,-0.36
2023-01-25T02:46:31.915Z,-0.37
2023-01-25T02:49:00.992Z,-0.27
2023-01-25T02:51:33.361Z,-0.25
2023-01-25T02:54:01.172Z,-0.22
2023-01-25T02:56:30.223Z,-0.33
2023-01-25T02:58:57.533Z,-0.43
2023-01-25T03:01:24.867Z,-0.47
2023-01-25T03:04:07.516Z,-0.56
2023-01-25T03:06:42.544Z,-0.48
2023-01-25T03:09:11.345Z,-0.50
2023-01-25T03:11:42.167Z,-0.57
2023-01-25T03:28:25.614Z,-1.15
2023-01-25T03:30:55.976Z,-1.05
2023-01-25T03:33:22.880Z,-0.98
2023-01-25T03:35:54.533Z,-0.79
2023-01-25T03:38:22.151Z,-0.83
2023-01-25T03:40:49.443Z,-0.76
2023-01-25T03:43:17.072Z,-0.74
2023-01-25T03:45:56.673Z,-0.76
2023-01-25T03:48:24.814Z,-0.79
2023-01-25T03:50:58.162Z,-0.76
2023-01-25T03:53:29.759Z,-0.77
2023-01-25T03:56:10.202Z,-0.75
2023-01-25T03:58:39.417Z,-0.80
2023-01-25T04:01:08.918Z,-0.71
2023-01-25T04:03:36.262Z,-0.70
2023-01-25T04:06:05.858Z,-0.66
2023-01-25T04:08:33.584Z,-0.63
2023-01-25T04:11:06.232Z,-0.57
2023-01-25T04:13:37.046Z,-0.63
2023-01-25T04:16:07.838Z,-0.55
2023-01-25T04:18:57.866Z,-0.54
2023-01-25T04:21:25.559Z,-0.71
2023-01-25T04:23:52.933Z,-0.71
2023-01-25T04:26:20.217Z,-0.78
2023-01-25T04:28:53.377Z,-0.81
2023-01-25T04:31:20.377Z,-0.82
2023-01-25T04:33:50.524Z,-0.81
2023-01-25T04:36:19.282Z,-0.74
2023-01-25T04:38:46.481Z,-0.78
2023-01-25T04:41:13.543Z,-0.77
2023-01-25T04:43:42.024Z,-0.72
2023-01-25T04:46:10.727Z,-0.74
2023-01-25T04:48:37.855Z,-0.61
2023-01-25T04:51:06.898Z,-0.65
2023-01-25T04:53:35.025Z,-0.56
2023-01-25T04:56:05.231Z,-0.53
2023-01-25T04:58:37.172Z,-0.52
2023-01-25T05:01:04.946Z,-0.50
2023-01-25T05:03:32.576Z,-0.46
2023-01-25T05:05:59.775Z,-0.51
2023-01-25T05:08:26.961Z,-0.53
2023-01-25T05:11:00.275Z,-0.53
2023-01-25T05:13:38.307Z,-0.53
2023-01-25T05:16:23.407Z,-0.42
2023-01-25T05:18:50.497Z,-0.35
2023-01-25T05:21:39.826Z,-0.21
2023-01-25T05:24:09.117Z,-0.29
2023-01-25T05:26:55.060Z,-0.29
2023-01-25T05:29:22.272Z,-0.40
2023-01-25T05:31:59.610Z,-0.39
2023-01-25T05:34:27.596Z,-0.38
2023-01-25T05:36:54.733Z,-0.39
2023-01-25T05:39:22.311Z,-0.34
2023-01-25T05:41:49.779Z,-0.39
2023-01-25T05:44:16.720Z,-0.40
2023-01-25T05:46:46.908Z,-0.29
2023-01-25T05:49:17.208Z,-0.27
2023-01-25T05:51:45.146Z,-0.28
2023-01-25T05:54:17.704Z,-0.31
2023-01-25T05:56:57.020Z,-0.21
2023-01-25T05:59:23.850Z,-0.30
2023-01-25T06:01:52.681Z,-0.26
2023-01-25T06:04:20.071Z,-0.27
2023-01-25T06:06:47.062Z,-0.14
2023-01-25T06:09:14.703Z,-0.14
2023-01-25T06:11:45.461Z,-0.20
2023-01-25T06:14:13.492Z,-0.19
2023-01-25T06:16:41.161Z,-0.10
2023-01-25T06:19:26.556Z,-0.05
2023-01-25T06:22:09.316Z,-0.10
2023-01-25T06:24:36.226Z,-0.09
2023-01-25T06:27:03.190Z,-0.09
2023-01-25T06:29:29.982Z,-0.10
2023-01-25T06:31:57.023Z,-0.10
2023-01-25T06:34:24.857Z,-0.07
2023-01-25T06:36:52.898Z,-0.03
2023-01-25T06:39:19.757Z,-0.03
2023-01-25T06:41:47.210Z,-0.01
2023-01-25T06:44:14.072Z,0.07
2023-01-25T06:46:41.183Z,0.05
2023-01-25T06:49:08.115Z,-0.06
2023-01-25T06:51:35.259Z,-0.10
2023-01-25T06:54:04.409Z,-0.09
2023-01-25T06:56:32.815Z,-0.01
2023-01-25T06:58:59.689Z,-0.04
2023-01-25T07:01:30.742Z,-0.03
2023-01-25T07:03:59.308Z,0.08
2023-01-25T07:06:32.440Z,0.13
2023-01-25T07:09:07.159Z,0.14
2023-01-25T07:11:34.632Z,0.17
2023-01-25T07:14:01.738Z,0.23
2023-01-25T07:16:28.669Z,0.21
2023-01-25T07:18:57.818Z,0.29
2023-01-25T07:21:24.752Z,0.37
2023-01-25T07:23:52.797Z,0.41
2023-01-25T07:26:25.496Z,0.46
2023-01-25T07:28:53.223Z,0.52
2023-01-25T07:31:20.974Z,0.58
2023-01-25T07:33:49.757Z,0.74
2023-01-25T07:36:16.721Z,0.79
2023-01-25T07:38:43.826Z,0.84
2023-01-25T07:41:10.985Z,0.97
2023-01-25T07:43:37.891Z,0.86
2023-01-25T07:46:08.220Z,0.95
2023-01-25T07:48:35.143Z,0.95
2023-01-25T07:51:12.744Z,0.92
2023-01-25T07:53:43.948Z,1.08
2023-01-25T07:56:12.285Z,1.01
2023-01-25T07:58:39.776Z,1.00
2023-01-25T08:01:14.704Z,1.04
2023-01-25T08:03:41.982Z,1.10
2023-01-25T08:06:10.036Z,1.15
2023-01-25T08:08:45.992Z,1.20
2023-01-25T08:11:13.449Z,1.19
2023-01-25T08:13:41.389Z,1.32
2023-01-25T08:16:08.927Z,1.29
2023-01-25T08:18:36.734Z,1.23
2023-01-25T08:21:04.033Z,1.23
2023-01-25T08:23:30.917Z,1.21
2023-01-25T08:26:02.797Z,1.24
2023-01-25T08:28:29.684Z,1.24
2023-01-25T08:31:05.795Z,1.20
2023-01-25T08:33:32.680Z,1.19
2023-01-25T08:35:59.645Z,1.25
2023-01-25T08:38:26.590Z,1.26
2023-01-25T08:40:53.489Z,1.29
2023-01-25T08:43:20.360Z,1.30
2023-01-25T08:45:55.767Z,1.27
2023-01-25T08:48:22.657Z,1.25
2023-01-25T08:50:49.561Z,1.41
2023-01-25T08:53:16.350Z,1.58
2023-01-25T08:55:43.309Z,1.51
2023-01-25T08:58:16.236Z,1.53
2023-01-25T09:00:43.732Z,1.55
2023-01-25T09:03:11.933Z,1.64
2023-01-25T09:05:40.050Z,1.72
2023-01-25T09:08:09.904Z,1.60
2023-01-25T09:10:37.140Z,1.70
2023-01-25T09:13:04.277Z,1.71
2023-01-25T09:15:31.377Z,1.52
2023-01-25T09:17:58.248Z,1.47
2023-01-25T09:20:25.143Z,1.52
2023-01-25T09:22:52.100Z,1.68
2023-01-25T09:25:19.071Z,1.93
2023-01-25T09:27:50.579Z,1.89
2023-01-25T09:30:19.009Z,1.97
2023-01-25T09:32:51.277Z,2.13
2023-01-25T09:35:18.314Z,2.08
2023-01-25T09:37:45.177Z,1.99
2023-01-25T09:40:23.862Z,2.17
2023-01-25T09:43:36.805Z,2.21
2023-01-25T09:46:17.589Z,2.21
2023-01-25T09:49:25.918Z,2.09
2023-01-25T09:52:07.214Z,2.13
2023-01-25T09:54:47.110Z,2.28
2023-01-25T09:57:17.051Z,2.33
2023-01-25T09:59:47.044Z,2.52
2023-01-25T10:02:37.997Z,2.45
2023-01-25T10:05:11.854Z,2.46
2023-01-25T10:07:54.113Z,2.48
2023-01-25T10:10:35.985Z,2.46
2023-01-25T10:13:03.284Z,2.53
2023-01-25T10:15:38.529Z,2.68
2023-01-25T10:18:10.111Z,2.64
2023-01-25T10:20:56.293Z,2.72
2023-01-25T10:23:44.226Z,2.72
2023-01-25T10:26:32.522Z,2.70
2023-01-25T10:29:27.944Z,2.64
2023-01-25T10:32:02.568Z,2.80
2023-01-25T10:34:54.337Z,2.68
2023-01-25T10:37:26.937Z,2.60
2023-01-25T10:39:57.140Z,2.58
2023-01-25T10:42:27.720Z,2.60
2023-01-25T10:44:54.577Z,2.41
2023-01-25T10:47:29.488Z,2.26
2023-01-25T10:49:58.928Z,2.22
2023-01-25T10:52:31.983Z,2.19
2023-01-25T10:55:10.988Z,2.29
2023-01-25T10:57:43.025Z,2.32
2023-01-25T11:00:23.902Z,2.36
2023-01-25T11:02:50.889Z,2.19
2023-01-25T11:05:36.988Z,2.10
2023-01-25T11:08:35.459Z,2.06
2023-01-25T11:11:22.493Z,2.17
2023-01-25T11:13:49.575Z,2.10
2023-01-25T11:16:30.728Z,1.99
2023-01-25T11:18:58.894Z,1.93
2023-01-25T11:21:30.973Z,1.84
2023-01-25T11:24:07.002Z,1.85
2023-01-25T11:26:38.060Z,1.87
2023-01-25T11:29:19.806Z,1.85
2023-01-25T11:31:49.987Z,1.98
2023-01-25T11:34:19.510Z,2.13
2023-01-25T11:37:14.310Z,1.92
2023-01-25T11:40:04.649Z,1.82
2023-01-25T11:42:31.540Z,2.08
2023-01-25T11:45:42.138Z,1.98
2023-01-25T11:48:31.189Z,1.85
2023-01-25T11:51:14.666Z,1.74
2023-01-25T11:54:13.845Z,1.56
2023-01-25T11:56:43.731Z,1.34
2023-01-25T11:59:19.691Z,1.35
2023-01-25T12:02:14.343Z,1.34
2023-01-25T12:04:41.203Z,1.32
2023-01-25T12:07:29.789Z,1.29
2023-01-25T12:09:59.713Z,1.41
2023-01-25T12:12:47.785Z,1.35
2023-01-25T12:15:36.115Z,1.35
2023-01-25T12:18:03.008Z,1.39
2023-01-25T12:20:42.094Z,1.32
2023-01-25T12:23:14.909Z,1.23
2023-01-25T12:26:05.256Z,1.34
2023-01-25T12:28:41.195Z,1.33
2023-01-25T12:31:13.291Z,1.30
2023-01-25T12:33:45.532Z,1.30
2023-01-25T12:36:22.935Z,1.18
2023-01-25T12:38:52.499Z,1.26
2023-01-25T12:41:28.479Z,1.38
2023-01-25T12:44:15.632Z,1.39
2023-01-25T12:46:48.588Z,1.34
2023-01-25T12:49:39.966Z,1.36
2023-01-25T12:52:32.352Z,1.29
2023-01-25T12:55:12.503Z,1.45
2023-01-25T12:57:54.117Z,1.47
2023-01-25T13:00:28.529Z,1.52
2023-01-25T13:03:01.628Z,1.59
2023-01-25T13:05:28.399Z,1.57
2023-01-25T13:08:32.966Z,1.64
2023-01-25T13:11:18.415Z,1.66
2023-01-25T13:13:45.368Z,1.85
2023-01-25T13:16:30.379Z,1.76
2023-01-25T13:18:58.537Z,1.90
2023-01-25T13:21:37.378Z,1.93
2023-01-25T13:24:19.274Z,1.82
2023-01-25T13:26:57.308Z,1.94
2023-01-25T13:29:36.544Z,1.83
2023-01-25T13:32:05.771Z,1.76
2023-01-25T13:34:39.420Z,1.57
2023-01-25T13:37:19.931Z,1.77
2023-01-25T13:39:46.775Z,1.68
2023-01-25T13:42:13.554Z,1.62
2023-01-25T13:45:02.828Z,1.52
2023-01-25T13:47:37.975Z,1.49
2023-01-25T13:50:22.820Z,1.57
2023-01-25T13:53:01.947Z,1.58
2023-01-25T13:55:30.244Z,1.48
2023-01-25T13:58:31.163Z,1.34
2023-01-25T14:01:06.489Z,1.33
2023-01-25T14:03:40.838Z,1.30
2023-01-25T14:06:16.477Z,1.14
2023-01-25T14:08:45.372Z,1.14
2023-01-25T14:11:21.815Z,1.15
2023-01-25T14:14:03.260Z,1.11
2023-01-25T14:16:32.075Z,1.08
2023-01-25T14:19:22.672Z,1.11
2023-01-25T14:21:49.573Z,1.09
2023-01-25T14:24:19.700Z,1.14
2023-01-25T14:26:47.658Z,1.13
2023-01-25T14:29:35.407Z,1.22
2023-01-25T14:32:03.403Z,1.29
2023-01-25T14:34:30.628Z,1.20
2023-01-25T14:37:16.287Z,1.27
2023-01-25T14:39:43.239Z,1.33
2023-01-25T14:42:11.094Z,1.24
2023-01-25T14:44:38.270Z,1.14
2023-01-25T14:47:31.234Z,1.26
2023-01-25T14:50:28.936Z,1.19
2023-01-25T14:52:57.295Z,1.28
2023-01-25T14:55:24.279Z,1.33
2023-01-25T14:57:51.375Z,1.34
2023-01-25T15:00:24.708Z,1.43
2023-01-25T15:02:55.590Z,1.29
2023-01-25T15:05:24.748Z,1.19
2023-01-25T15:08:13.667Z,1.12
2023-01-25T15:10:55.106Z,0.96
2023-01-25T15:13:23.342Z,0.85
2023-01-25T15:16:01.904Z,1.00
2023-01-25T15:29:52.554Z,0.57
2023-01-25T15:32:21.445Z,0.68
2023-01-25T15:34:48.623Z,0.82
2023-01-25T15:37:15.493Z,0.87
2023-01-25T15:39:42.373Z,0.92
2023-01-25T15:42:09.418Z,0.94
2023-01-25T15:44:36.330Z,0.84
2023-01-25T15:47:03.209Z,0.86
2023-01-25T15:49:31.766Z,0.87
2023-01-25T15:51:58.843Z,0.83
2023-01-25T15:54:26.477Z,0.85
2023-01-25T15:56:57.633Z,0.88
2023-01-25T15:59:25.175Z,0.87
2023-01-25T16:01:52.261Z,0.97
2023-01-25T16:04:19.105Z,0.98
2023-01-25T16:06:45.977Z,1.03
2023-01-25T16:09:25.120Z,0.97
2023-01-25T16:11:54.627Z,0.93
2023-01-25T16:14:23.829Z,0.98
2023-01-25T16:16:52.993Z,0.90
2023-01-25T16:19:22.181Z,0.85
2023-01-25T16:21:50.019Z,0.90
2023-01-25T16:24:18.241Z,0.97
2023-01-25T16:26:50.688Z,0.91
2023-01-25T16:29:17.562Z,0.93
2023-01-25T16:31:44.579Z,0.93
2023-01-25T16:34:11.465Z,1.08
2023-01-25T16:36:39.649Z,1.03
2023-01-25T16:39:16.013Z,0.93
2023-01-25T16:41:42.793Z,1.04
2023-01-25T16:44:09.711Z,0.99
2023-01-25T16:46:36.705Z,1.01
2023-01-25T16:49:06.962Z,1.06
2023-01-25T16:51:34.065Z,1.06
2023-01-25T16:54:00.929Z,1.06
2023-01-25T16:56:33.076Z,1.04
2023-01-25T16:59:05.245Z,1.06
2023-01-25T17:01:32.804Z,1.05
2023-01-25T17:03:59.820Z,1.11
2023-01-25T17:06:29.248Z,1.12
2023-01-25T17:09:00.316Z,1.20
2023-01-25T17:11:28.188Z,1.28
2023-01-25T17:13:57.756Z,1.26
2023-01-25T17:16:26.677Z,1.28
2023-01-25T17:19:02.617Z,1.22
2023-01-25T17:21:29.907Z,1.24
2023-01-25T17:23:58.423Z,1.23
2023-01-25T17:26:28.165Z,1.23
2023-01-25T17:28:56.594Z,1.20
2023-01-25T17:31:26.913Z,1.23
2023-01-25T17:33:54.801Z,1.31
2023-01-25T17:36:21.893Z,1.29
2023-01-25T17:38:49.373Z,1.31
2023-01-25T17:41:17.217Z,1.26
2023-01-25T17:43:44.205Z,1.27
2023-01-25T17:46:11.848Z,1.29
2023-01-25T17:48:39.164Z,1.30
2023-01-25T17:51:06.068Z,1.22
2023-01-25T17:53:33.084Z,1.18
2023-01-25T17:56:05.571Z,1.11
2023-01-25T17:58:35.551Z,1.12
2023-01-25T18:01:13.834Z,1.10
2023-01-25T18:03:42.951Z,1.06
2023-01-25T18:06:11.260Z,1.06
2023-01-25T18:08:46.292Z,1.06
2023-01-25T18:11:15.998Z,1.08
2023-01-25T18:13:45.274Z,1.12
2023-01-25T18:16:14.413Z,1.16
2023-01-25T18:18:42.840Z,1.16
2023-01-25T18:21:16.107Z,1.20
2023-01-25T18:23:47.315Z,1.23
2023-01-25T18:26:20.312Z,1.22
2023-01-25T18:28:47.690Z,1.26
2023-01-25T18:31:18.777Z,1.24
2023-01-25T18:33:45.747Z,1.24
2023-01-25T18:36:17.400Z,1.21
2023-01-25T18:38:45.043Z,1.19
2023-01-25T18:41:12.684Z,1.10
2023-01-25T18:43:39.604Z,1.06
2023-01-25T18:46:06.916Z,1.02
2023-01-25T18:48:33.915Z,1.01
2023-01-25T18:51:11.417Z,0.96
2023-01-25T18:53:40.175Z,1.00
2023-01-25T18:56:12.573Z,0.98
2023-01-25T18:58:40.168Z,0.91
2023-01-25T19:01:11.416Z,0.92
2023-01-25T19:03:38.573Z,0.92
2023-01-25T19:06:06.370Z,0.91
2023-01-25T19:08:35.615Z,0.90
2023-01-25T19:11:06.155Z,0.90
2023-01-25T19:13:34.501Z,0.90
2023-01-25T19:16:07.049Z,0.90
2023-01-25T19:18:41.098Z,0.89
2023-01-25T19:21:09.929Z,0.91
2023-01-25T19:23:39.317Z,0.90
2023-01-25T19:26:10.766Z,0.95
2023-01-25T19:28:38.966Z,0.93
2023-01-25T19:31:24.392Z,0.90
2023-01-25T19:34:03.284Z,0.84
2023-01-25T19:36:32.728Z,0.85
2023-01-25T19:39:00.030Z,0.84
2023-01-25T19:41:28.907Z,0.85
2023-01-25T19:43:57.953Z,0.83
2023-01-25T19:46:27.714Z,0.78
2023-01-25T19:48:55.057Z,0.76
2023-01-25T19:51:23.025Z,0.74
2023-01-25T19:54:03.415Z,0.72
2023-01-25T19:56:37.562Z,0.70
2023-01-25T19:59:05.499Z,0.72
2023-01-25T20:01:35.381Z,0.73
2023-01-25T20:04:04.239Z,0.71
2023-01-25T20:06:31.081Z,0.73
2023-01-25T20:08:57.938Z,0.79
2023-01-25T20:11:27.772Z,0.79
2023-01-25T20:13:57.816Z,0.78
2023-01-25T20:16:25.869Z,0.75
2023-01-25T20:18:55.087Z,0.78
2023-01-25T20:21:23.797Z,0.78
2023-01-25T20:23:55.092Z,0.80
2023-01-25T20:26:27.935Z,0.81
2023-01-25T20:28:56.679Z,0.79
2023-01-25T20:31:28.206Z,0.79
2023-01-25T20:33:57.961Z,0.76
2023-01-25T20:36:27.973Z,0.77
2023-01-25T20:38:55.415Z,0.76
2023-01-25T20:41:22.940Z,0.77
2023-01-25T20:44:02.124Z,0.74
2023-01-25T20:46:29.820Z,0.68
2023-01-25T20:48:56.691Z,0.66
2023-01-25T20:51:24.175Z,0.66
2023-01-25T20:53:51.795Z,0.65
2023-01-25T20:56:19.429Z,0.57
2023-01-25T20:58:50.482Z,0.56
2023-01-25T21:01:19.299Z,0.58
2023-01-25T21:03:46.753Z,0.54
2023-01-25T21:06:14.485Z,0.52
2023-01-25T21:08:41.742Z,0.52
2023-01-25T21:11:09.039Z,0.52
2023-01-25T21:13:36.029Z,0.55
2023-01-25T21:16:04.754Z,0.55
2023-01-25T21:18:42.602Z,0.56
2023-01-25T21:21:11.621Z,0.59
2023-01-25T21:23:40.991Z,0.57
2023-01-25T21:26:10.401Z,0.58
2023-01-25T21:28:37.326Z,0.64
2023-01-25T21:31:12.607Z,0.65
2023-01-25T21:33:40.545Z,0.68
2023-01-25T21:36:08.870Z,0.64
2023-01-25T21:38:36.191Z,0.67
2023-01-25T21:41:05.243Z,0.63
2023-01-25T21:43:55.606Z,0.60
2023-01-25T21:46:27.011Z,0.52
2023-01-25T21:49:17.737Z,0.47
2023-01-25T21:51:49.535Z,0.44
2023-01-25T21:54:19.126Z,0.38
2023-01-25T21:56:47.374Z,0.36
2023-01-25T21:59:14.468Z,0.38
2023-01-25T22:01:43.160Z,0.40
2023-01-25T22:04:11.567Z,0.37
2023-01-25T22:06:39.129Z,0.50
2023-01-25T22:09:07.187Z,0.47
2023-01-25T22:11:34.456Z,0.57
2023-01-25T22:14:01.634Z,0.49
2023-01-25T22:16:31.883Z,0.41
2023-01-25T22:19:01.699Z,0.46
2023-01-25T22:21:32.080Z,0.42
2023-01-25T22:24:00.923Z,0.55
2023-01-25T22:26:39.402Z,0.51
2023-01-25T22:29:06.318Z,0.44
2023-01-25T22:31:33.310Z,0.33
2023-01-25T22:34:00.511Z,0.32
2023-01-25T22:36:29.316Z,0.29
2023-01-25T22:38:57.055Z,0.25
2023-01-25T22:41:26.412Z,0.21
2023-01-25T22:43:54.076Z,0.22
2023-01-25T22:46:23.914Z,0.24
2023-01-25T22:48:50.925Z,0.25
2023-01-25T22:51:20.089Z,0.22
2023-01-25T22:53:47.226Z,0.23
2023-01-25T22:56:17.173Z,0.25
2023-01-25T22:58:45.498Z,0.27
2023-01-25T23:01:15.251Z,0.30
2023-01-25T23:03:42.279Z,0.29
2023-01-25T23:06:14.174Z,0.32
2023-01-25T23:08:41.765Z,0.36
2023-01-25T23:11:19.951Z,0.41
2023-01-25T23:14:06.299Z,0.46
2023-01-25T23:16:34.816Z,0.49
2023-01-25T23:19:02.203Z,0.51
2023-01-25T23:21:30.045Z,0.57
2023-01-25T23:24:00.829Z,0.63
2023-01-25T23:26:29.851Z,0.66
2023-01-25T23:28:57.920Z,0.72
2023-01-25T23:31:26.263Z,0.73
2023-01-25T23:33:55.419Z,0.72
2023-01-25T23:36:24.761Z,0.76
2023-01-25T23:38:52.105Z,0.82
2023-01-25T23:41:20.692Z,0.85
2023-01-25T23:43:48.472Z,0.82
2023-01-25T23:46:16.326Z,0.85
2023-01-25T23:48:44.227Z,0.84
2023-01-25T23:51:14.785Z,0.85
2023-01-25T23:53:42.775Z,0.94
2023-01-25T23:56:15.827Z,0.92
2023-01-25T23:58:42.991Z,0.93
